Time;durP1;ratioP1;P1;durP2;ratioP2;P2;SDS_P1;SDS_P2;PMS_P1;PMS_P2;Temp;Humidity;BMP_temperature;BMP_pressure;BME280_temperature;BME280_humidity;BME280_pressure;Samples;Min_cycle;Max_cycle;Signal;HPM_P1;HPM_P2
2022/01/16 00:01:06;;;;;;;18.02;11.65;;;;;;;16.91;63.54;99535.78;3130420;28;20052;-50
2022/01/16 00:04:28;;;;;;;22.45;11.98;;;;;;;16.89;63.38;99531.59;3132154;28;20051;-50
2022/01/16 00:06:00;;;;;;;20.13;12.38;;;;;;;16.89;63.45;99516.34;3129690;28;20132;-51
2022/01/16 00:07:32;;;;;;;31.15;13.02;;;;;;;16.87;63.25;99493.41;3132029;28;20056;-51
2022/01/16 00:09:05;;;;;;;21.08;11.68;;;;;;;16.86;63.31;99484.53;3131419;28;20482;-52
2022/01/16 00:10:37;;;;;;;21.52;12.18;;;;;;;16.86;63.35;99508.66;3135212;28;20094;-53
2022/01/16 00:12:11;;;;;;;18.17;11.75;;;;;;;16.83;63.68;99517.03;3134484;28;20102;-50
2022/01/16 00:13:43;;;;;;;18.75;11.05;;;;;;;16.83;63.37;99519.72;3131702;28;20049;-51
2022/01/16 00:15:15;;;;;;;18.88;11.13;;;;;;;16.81;63.46;99519.03;3131426;28;20063;-49
2022/01/16 00:16:47;;;;;;;22.63;11.38;;;;;;;16.81;63.35;99545.00;3131606;28;20044;-49
2022/01/16 00:18:23;;;;;;;17.92;10.70;;;;;;;16.80;63.48;99535.25;3132479;28;20052;-48
2022/01/16 00:19:55;;;;;;;19.63;12.25;;;;;;;16.78;63.35;99543.47;3133192;28;20060;-50
2022/01/16 00:21:30;;;;;;;20.05;11.63;;;;;;;16.78;63.27;99556.06;3132451;28;20095;-49
2022/01/16 00:23:05;;;;;;;16.95;11.15;;;;;;;16.76;63.36;99540.09;3126095;28;20136;-48
2022/01/16 00:24:37;;;;;;;18.30;10.38;;;;;;;16.74;63.33;99507.28;3131251;28;20053;-49
2022/01/16 00:26:09;;;;;;;15.82;10.20;;;;;;;16.74;63.32;99501.91;3133517;28;20121;-52
2022/01/16 00:27:42;;;;;;;19.75;11.80;;;;;;;16.73;63.25;99514.47;3134396;28;20049;-49
2022/01/16 00:29:13;;;;;;;19.67;10.80;;;;;;;16.72;63.25;99509.31;3128211;28;20043;-51
2022/01/16 00:30:46;;;;;;;17.05;10.85;;;;;;;16.71;63.26;99495.06;3130355;28;20115;-50
2022/01/16 00:32:18;;;;;;;19.45;10.70;;;;;;;16.70;63.26;99508.63;3131770;28;20055;-56
2022/01/16 00:33:52;;;;;;;16.63;10.32;;;;;;;16.69;63.33;99523.88;3132365;28;20117;-47
2022/01/16 00:35:24;;;;;;;17.02;11.70;;;;;;;16.69;63.23;99542.63;3131428;28;20048;-51
2022/01/16 00:36:55;;;;;;;21.52;12.25;;;;;;;16.69;63.13;99552.50;3127542;28;20580;-51
2022/01/16 00:38:27;;;;;;;16.85;10.52;;;;;;;16.67;63.21;99544.63;3130841;28;20049;-51
2022/01/16 00:39:59;;;;;;;23.23;12.02;;;;;;;16.65;63.04;99552.00;3132315;28;20581;-51
2022/01/16 00:41:32;;;;;;;18.48;10.50;;;;;;;16.66;63.04;99563.53;3131262;28;20045;-50
2022/01/16 00:43:05;;;;;;;18.48;10.38;;;;;;;16.65;63.30;99578.78;3131786;28;20110;-53
2022/01/16 00:44:36;;;;;;;18.48;11.38;;;;;;;16.65;63.33;99567.22;3128025;28;20687;-51
2022/01/16 00:46:08;;;;;;;15.75;9.93;;;;;;;16.64;63.22;99565.56;3129822;28;20052;-51
2022/01/16 00:47:40;;;;;;;18.42;9.82;;;;;;;16.62;63.15;99560.38;3132432;28;20060;-51
2022/01/16 00:49:14;;;;;;;19.98;11.75;;;;;;;16.61;63.13;99545.31;3123447;28;20722;-51
2022/01/16 00:50:45;;;;;;;15.27;9.90;;;;;;;16.61;63.12;99494.44;3132865;28;20642;-51
2022/01/16 00:52:19;;;;;;;18.60;11.18;;;;;;;16.60;63.09;99457.09;3131548;28;20053;-49
2022/01/16 00:53:51;;;;;;;16.77;11.00;;;;;;;16.58;63.18;99454.59;3132474;28;20052;-51
2022/01/16 00:55:23;;;;;;;17.23;10.10;;;;;;;16.59;62.96;99444.72;3130635;28;20052;-53
2022/01/16 00:56:55;;;;;;;20.58;9.82;;;;;;;16.56;63.22;99440.53;3131433;28;20048;-49
2022/01/16 00:58:27;;;;;;;20.55;11.23;;;;;;;16.56;63.29;99448.56;3127930;28;20126;-50
2022/01/16 00:59:59;;;;;;;14.60;9.63;;;;;;;16.54;63.14;99467.47;3129280;28;20056;-49
2022/01/16 01:01:31;;;;;;;15.10;8.80;;;;;;;16.52;63.25;99461.47;3128762;28;20131;-50
2022/01/16 01:03:03;;;;;;;21.45;10.02;;;;;;;16.54;63.27;99482.72;3131693;28;20163;-48
2022/01/16 01:04:36;;;;;;;22.42;10.57;;;;;;;16.53;63.22;99505.16;3129858;28;20645;-49
2022/01/16 01:06:08;;;;;;;15.57;9.02;;;;;;;16.52;63.29;99512.34;3130848;28;20045;-49
2022/01/16 01:07:40;;;;;;;15.93;10.30;;;;;;;16.51;63.24;99525.91;3131058;28;20064;-50
2022/01/16 01:09:12;;;;;;;17.20;9.73;;;;;;;16.50;63.06;99526.91;3131170;28;20118;-51
2022/01/16 01:10:47;;;;;;;16.65;9.73;;;;;;;16.50;63.13;99532.25;3132226;28;20063;-49
2022/01/16 01:12:27;;;;;;;20.42;9.27;;;;;;;16.48;63.18;99534.25;3130084;28;20045;-48
2022/01/16 01:14:15;;;;;;;17.58;9.65;;;;;;;16.47;63.18;99532.59;3131786;28;20098;-50
2022/01/16 01:15:50;;;;;;;15.88;9.40;;;;;;;16.47;63.03;99537.97;3129972;28;20052;-48
2022/01/16 01:17:24;;;;;;;15.95;9.18;;;;;;;16.47;62.89;99546.00;3129194;28;20052;-50
2022/01/16 01:18:56;;;;;;;14.38;8.25;;;;;;;16.45;63.07;99542.63;3132347;28;20087;-49
2022/01/16 01:20:29;;;;;;;15.80;8.80;;;;;;;16.43;63.05;99552.66;3130278;28;20048;-51
2022/01/16 01:22:02;;;;;;;16.88;9.35;;;;;;;16.42;63.12;99537.63;3130628;28;20671;-49
2022/01/16 01:23:34;;;;;;;12.80;8.52;;;;;;;16.42;63.11;99537.63;3130512;28;20041;-51
2022/01/16 01:25:06;;;;;;;17.48;10.00;;;;;;;16.41;63.21;99527.91;3129657;28;20049;-49
2022/01/16 01:26:47;;;;;;;14.68;9.07;;;;;;;16.39;63.24;99520.03;3131060;28;20062;-50
2022/01/16 01:28:19;;;;;;;15.18;8.68;;;;;;;16.37;63.11;99524.72;3129537;28;20062;-50
2022/01/16 01:29:58;;;;;;;16.48;9.95;;;;;;;16.37;63.28;99530.09;3132975;28;20102;-49
2022/01/16 01:31:31;;;;;;;14.85;9.02;;;;;;;16.38;63.11;99544.28;3132207;28;20049;-49
2022/01/16 01:33:03;;;;;;;16.95;9.52;;;;;;;16.37;63.08;99550.66;3133202;28;20041;-50
2022/01/16 01:34:35;;;;;;;14.77;8.68;;;;;;;16.37;63.05;99564.06;3127662;28;20122;-49
2022/01/16 01:36:08;;;;;;;17.52;9.13;;;;;;;16.36;63.12;99578.47;3131231;28;20056;-49
2022/01/16 01:37:40;;;;;;;20.83;9.80;;;;;;;16.34;63.17;99588.47;3131445;28;20407;-49
2022/01/16 01:39:12;;;;;;;11.98;7.28;;;;;;;16.34;63.26;99585.81;3133323;28;20052;-51
2022/01/16 01:40:44;;;;;;;13.23;8.85;;;;;;;16.33;63.22;99597.53;3130744;28;20055;-49
2022/01/16 01:42:16;;;;;;;14.57;9.75;;;;;;;16.32;63.15;99604.69;3130919;28;20641;-48
2022/01/16 01:51:11;;;;;;;13.95;8.88;;;;;;;16.26;63.17;99611.56;3132583;28;20049;-51
2022/01/16 01:52:43;;;;;;;13.73;8.20;;;;;;;16.26;63.17;99613.41;3131380;28;20048;-52
2022/01/16 01:54:15;;;;;;;13.30;9.15;;;;;;;16.25;63.09;99614.41;3132499;28;20158;-48
2022/01/16 01:55:47;;;;;;;11.90;8.40;;;;;;;16.24;63.18;99602.88;3128156;28;20041;-47
2022/01/16 01:57:20;;;;;;;15.52;8.23;;;;;;;16.21;63.22;99600.50;3130946;28;20094;-52
2022/01/16 01:58:53;;;;;;;12.68;9.02;;;;;;;16.21;63.20;99596.97;3133090;28;20113;-48
2022/01/16 02:00:25;;;;;;;14.60;8.38;;;;;;;16.21;63.08;99589.78;3131055;28;20052;-50
2022/01/16 02:01:57;;;;;;;15.85;7.93;;;;;;;16.21;63.08;99596.97;3132340;28;20053;-50
2022/01/16 02:03:42;;;;;;;16.63;8.35;;;;;;;16.20;63.36;99587.28;3130850;28;20048;-51
2022/01/16 02:05:14;;;;;;;9.75;7.43;;;;;;;16.19;63.12;99588.31;3128651;28;20048;-48
2022/01/16 02:06:47;;;;;;;14.05;7.28;;;;;;;16.19;63.15;99583.78;3130355;28;20053;-48
2022/01/16 02:08:19;;;;;;;13.32;8.13;;;;;;;16.17;63.26;99577.75;3123814;28;20097;-50
2022/01/16 02:09:51;;;;;;;13.52;7.72;;;;;;;16.15;63.07;99587.78;3131198;28;20052;-51
2022/01/16 02:11:26;;;;;;;12.02;8.52;;;;;;;16.14;63.06;99580.75;3131248;28;20563;-51
2022/01/16 02:13:01;;;;;;;12.35;6.95;;;;;;;16.14;63.06;99583.44;3132718;28;20714;-50
2022/01/16 02:14:47;;;;;;;14.00;8.98;;;;;;;16.13;62.99;99579.09;3126883;28;20049;-51
2022/01/16 02:30:11;;;;;;;13.73;7.57;;;;;;;16.06;63.18;99578.06;3130647;28;20407;-51
2022/01/16 02:31:31;;;;;;;11.55;7.50;;;;;;;16.06;62.99;99573.53;3129752;28;20615;-50
2022/01/16 02:34:55;;;;;;;13.85;8.20;;;;;;;16.05;62.94;99561.19;3132442;28;20115;-47
2022/01/16 02:36:30;;;;;;;16.30;8.80;;;;;;;16.05;62.85;99560.34;3130717;28;20052;-48
2022/01/16 02:38:05;;;;;;;10.68;7.20;;;;;;;16.04;62.92;99564.00;3132295;28;20052;-48
2022/01/16 02:39:40;;;;;;;12.68;7.38;;;;;;;16.04;62.90;99562.16;3132946;28;20048;-48
2022/01/16 02:41:12;;;;;;;12.73;7.22;;;;;;;16.03;62.86;99567.69;3134346;28;20175;-48
2022/01/16 02:42:49;;;;;;;10.57;6.90;;;;;;;16.01;62.91;99558.97;3129896;28;20110;-49
2022/01/16 02:44:29;;;;;;;14.13;7.88;;;;;;;16.00;62.87;99557.31;3133832;28;20683;-51
2022/01/16 02:47:57;;;;;;;10.65;6.03;;;;;;;16.01;63.05;99556.31;3133365;28;20598;-50
2022/01/16 02:49:31;;;;;;;10.60;7.13;;;;;;;16.00;62.87;99549.28;3132424;28;20037;-51
2022/01/16 02:51:02;;;;;;;13.82;8.70;;;;;;;15.99;62.84;99545.78;3132999;28;20056;-50
2022/01/16 02:52:34;;;;;;;12.55;7.63;;;;;;;15.99;63.00;99535.06;3128256;28;20048;-49
2022/01/16 02:54:07;;;;;;;10.80;6.60;;;;;;;15.98;62.93;99527.19;3134082;28;20041;-48
2022/01/16 02:55:43;;;;;;;13.25;7.70;;;;;;;15.98;63.03;99517.34;3133147;28;20048;-50
2022/01/16 02:57:16;;;;;;;11.80;6.97;;;;;;;15.97;63.02;99509.50;3134523;28;20056;-47
2022/01/16 02:58:50;;;;;;;8.70;5.80;;;;;;;15.96;62.82;99502.44;3132490;28;20051;-48
2022/01/16 03:00:22;;;;;;;9.88;7.60;;;;;;;15.97;62.71;99504.13;3132694;28;20102;-48
2022/01/16 03:01:55;;;;;;;12.13;6.57;;;;;;;15.96;62.76;99502.44;3134340;28;20067;-48
2022/01/16 03:03:27;;;;;;;8.13;5.60;;;;;;;15.96;62.65;99497.09;3134665;28;20052;-50
2022/01/16 03:05:02;;;;;;;10.13;6.38;;;;;;;15.93;62.95;99498.25;3134002;28;20055;-49
2022/01/16 03:06:34;;;;;;;11.70;7.57;;;;;;;15.94;62.78;99501.78;3131387;28;20044;-50
2022/01/16 03:08:06;;;;;;;10.70;7.20;;;;;;;15.94;62.89;99507.16;3135125;28;20045;-50
2022/01/16 03:09:56;;;;;;;11.55;7.13;;;;;;;15.92;62.80;99507.28;3134232;28;20137;-47
2022/01/16 03:11:34;;;;;;;11.27;7.45;;;;;;;15.94;62.67;99504.47;3133342;28;20065;-50
2022/01/16 03:13:05;;;;;;;9.52;6.55;;;;;;;15.94;62.49;99504.47;3134163;28;20060;-49
2022/01/16 03:14:38;;;;;;;10.90;7.80;;;;;;;15.92;62.52;99509.97;3129089;28;20380;-49
2022/01/16 03:16:10;;;;;;;10.27;7.20;;;;;;;15.92;62.69;99501.13;3133995;28;20128;-51
2022/01/16 03:21:52;;;;;;;13.15;7.35;;;;;;;15.91;62.71;99507.44;3132537;28;20552;-52
2022/01/16 03:23:13;;;;;;;10.77;6.60;;;;;;;15.88;62.75;99513.13;3133498;28;20049;-50
2022/01/16 03:24:47;;;;;;;12.52;6.40;;;;;;;15.88;62.47;99515.81;3132830;28;20052;-50
2022/01/16 03:26:18;;;;;;;8.35;6.13;;;;;;;15.86;62.52;99516.81;3133588;28;20076;-50
2022/01/16 03:27:50;;;;;;;8.07;5.80;;;;;;;15.85;62.45;99516.97;3133601;28;20045;-49
2022/01/16 03:29:21;;;;;;;10.90;7.30;;;;;;;15.85;62.53;99522.31;3132491;28;20403;-51
2022/01/16 03:30:54;;;;;;;10.25;6.55;;;;;;;15.84;62.41;99523.34;3132975;28;20045;-51
2022/01/16 03:32:26;;;;;;;10.15;6.38;;;;;;;15.82;62.38;99523.50;3132713;28;20050;-50
2022/01/16 03:33:58;;;;;;;10.18;6.57;;;;;;;15.83;62.33;99521.66;3130801;28;20395;-51
2022/01/16 03:35:30;;;;;;;8.88;6.45;;;;;;;15.82;62.56;99520.84;3131773;28;20503;-54
2022/01/16 03:37:02;;;;;;;10.15;6.53;;;;;;;15.81;62.50;99521.81;3133165;28;20056;-49
2022/01/16 03:38:33;;;;;;;11.40;6.78;;;;;;;15.80;62.57;99519.31;3129998;28;20134;-49
2022/01/16 03:40:10;;;;;;;8.77;6.57;;;;;;;15.80;62.50;99522.00;3133222;28;20479;-47
2022/01/16 03:41:42;;;;;;;10.10;5.97;;;;;;;15.79;62.73;99513.13;3133558;28;20052;-47
2022/01/16 03:43:15;;;;;;;11.15;6.43;;;;;;;15.78;62.48;99519.47;3133216;28;20049;-48
2022/01/16 03:44:46;;;;;;;10.68;7.07;;;;;;;15.79;62.57;99525.66;3132291;28;20060;-47
2022/01/16 03:46:18;;;;;;;7.00;4.97;;;;;;;15.79;62.59;99528.31;3132222;28;20426;-48
2022/01/16 03:47:50;;;;;;;10.40;5.95;;;;;;;15.78;62.48;99527.50;3133567;28;20041;-49
2022/01/16 03:49:25;;;;;;;11.27;5.88;;;;;;;15.79;62.36;99533.69;3128938;28;20087;-48
2022/01/16 03:50:57;;;;;;;8.32;5.35;;;;;;;15.77;62.48;99528.50;3130706;28;20048;-49
2022/01/16 03:52:29;;;;;;;9.23;6.10;;;;;;;15.77;62.31;99533.03;3132837;28;20049;-48
2022/01/16 03:54:00;;;;;;;9.00;5.80;;;;;;;15.77;62.43;99541.06;3133132;28;20060;-47
2022/01/16 03:55:34;;;;;;;10.75;6.32;;;;;;;15.76;62.38;99542.88;3132912;28;20051;-46
2022/01/16 03:57:06;;;;;;;10.18;5.70;;;;;;;15.76;62.36;99534.84;3132613;28;21380;-45
2022/01/16 03:58:38;;;;;;;10.80;6.97;;;;;;;15.74;62.34;99542.22;3126461;28;20870;-49
2022/01/16 04:00:11;;;;;;;9.52;6.00;;;;;;;15.74;62.37;99544.88;3133563;28;23377;-47
2022/01/16 04:01:43;;;;;;;6.50;5.30;;;;;;;15.73;62.47;99535.16;3132732;28;20121;-46
2022/01/16 04:03:15;;;;;;;7.07;5.65;;;;;;;15.72;62.55;99541.53;3129873;28;20094;-48
2022/01/16 04:04:47;;;;;;;8.98;5.80;;;;;;;15.72;62.49;99538.03;3132070;28;20044;-47
2022/01/16 04:06:19;;;;;;;8.95;5.75;;;;;;;15.71;62.32;99528.31;3132616;28;20052;-47
2022/01/16 04:07:51;;;;;;;7.63;4.72;;;;;;;15.71;62.28;99525.63;3133733;28;20587;-48
2022/01/16 04:09:23;;;;;;;9.27;5.97;;;;;;;15.70;62.26;99530.16;3133775;28;20113;-48
2022/01/16 04:10:57;;;;;;;9.70;5.95;;;;;;;15.70;62.42;99511.44;3130208;28;20057;-49
2022/01/16 04:12:29;;;;;;;10.18;5.50;;;;;;;15.71;62.50;99514.94;3131246;28;20057;-49
2022/01/16 04:14:07;;;;;;;8.63;5.78;;;;;;;15.69;62.40;99509.75;3132626;28;20082;-49
2022/01/16 04:15:38;;;;;;;9.25;5.55;;;;;;;15.70;62.57;99513.28;3133133;28;20059;-49
2022/01/16 04:17:10;;;;;;;10.18;6.07;;;;;;;15.68;62.40;99507.22;3132300;28;20048;-50
2022/01/16 04:18:42;;;;;;;10.00;4.82;;;;;;;15.67;62.49;99502.88;3131977;28;20094;-48
2022/01/16 04:20:16;;;;;;;6.68;4.95;;;;;;;15.67;62.36;99503.69;3129462;28;20644;-46
2022/01/16 04:21:48;;;;;;;9.35;5.57;;;;;;;15.67;62.45;99502.88;3132690;28;20044;-46
2022/01/16 04:23:20;;;;;;;9.82;6.38;;;;;;;15.65;62.37;99505.69;3132557;28;20114;-48
2022/01/16 04:24:50;;;;;;;10.05;6.50;;;;;;;15.64;62.39;99502.19;3132069;28;20049;-48
2022/01/16 04:26:25;;;;;;;7.18;4.80;;;;;;;15.64;62.23;99496.00;3130196;28;20469;-47
2022/01/16 04:27:57;;;;;;;8.50;6.22;;;;;;;15.63;62.50;99499.69;3134222;28;20143;-50
2022/01/16 04:29:29;;;;;;;8.07;5.90;;;;;;;15.63;62.69;99500.53;3129082;28;20045;-49
2022/01/16 04:31:01;;;;;;;10.23;6.07;;;;;;;15.65;62.74;99505.69;3131224;28;20052;-47
2022/01/16 04:32:32;;;;;;;10.95;5.78;;;;;;;15.65;63.03;99506.53;3132645;28;20107;-49
2022/01/16 04:34:04;;;;;;;9.68;5.45;;;;;;;15.67;63.11;99498.34;3132047;28;20079;-49
2022/01/16 04:35:35;;;;;;;11.45;5.85;;;;;;;15.67;63.12;99509.06;3132345;28;20048;-48
2022/01/16 04:37:08;;;;;;;8.52;5.80;;;;;;;15.68;63.21;99499.19;3132652;28;20075;-50
2022/01/16 04:38:45;;;;;;;11.02;5.32;;;;;;;15.68;63.18;99500.03;3129716;28;20049;-49
2022/01/16 04:40:17;;;;;;;9.07;6.43;;;;;;;15.67;63.21;99498.34;3132962;28;20491;-47
2022/01/16 04:43:48;;;;;;;7.35;4.95;;;;;;;15.69;63.19;99499.06;3133860;28;20045;-48
2022/01/16 04:45:20;;;;;;;8.77;5.78;;;;;;;15.69;63.15;99501.75;3131011;28;20063;-47
2022/01/16 04:46:53;;;;;;;9.85;5.82;;;;;;;15.69;63.26;99499.06;3131581;28;20087;-49
2022/01/16 04:48:24;;;;;;;6.13;4.82;;;;;;;15.69;63.22;99500.91;3129362;28;20452;-50
2022/01/16 04:49:56;;;;;;;7.38;4.97;;;;;;;15.69;63.17;99503.59;3133236;28;20079;-47
2022/01/16 04:51:30;;;;;;;7.60;5.25;;;;;;;15.68;63.24;99505.41;3130990;28;20044;-50
2022/01/16 04:53:02;;;;;;;7.70;5.90;;;;;;;15.68;63.01;99510.75;3133609;28;20509;-47
2022/01/16 04:54:33;;;;;;;9.07;6.18;;;;;;;15.68;63.13;99513.41;3130318;28;20041;-50
2022/01/16 04:56:06;;;;;;;6.80;5.25;;;;;;;15.68;63.30;99517.91;3131280;28;20513;-50
2022/01/16 04:57:40;;;;;;;7.25;5.50;;;;;;;15.68;63.22;99505.41;3133197;28;20139;-48
2022/01/16 04:59:11;;;;;;;10.25;5.15;;;;;;;15.68;63.25;99501.84;3131292;28;20052;-52
2022/01/16 05:00:43;;;;;;;10.15;6.78;;;;;;;15.67;63.20;99509.06;3129969;28;20041;-49
2022/01/16 05:02:15;;;;;;;9.00;5.30;;;;;;;15.67;63.28;99509.06;3128535;28;20053;-50
2022/01/16 05:03:47;;;;;;;7.15;5.68;;;;;;;15.67;63.16;99509.06;3130709;28;20418;-49
2022/01/16 05:05:19;;;;;;;9.50;5.75;;;;;;;15.67;63.28;99503.69;3130506;28;20429;-47
2022/01/16 05:06:50;;;;;;;10.00;6.32;;;;;;;15.68;63.42;99510.75;3132339;28;20494;-52
2022/01/16 05:08:22;;;;;;;8.75;5.22;;;;;;;15.71;63.24;99510.44;3130848;28;20045;-51
2022/01/16 05:09:54;;;;;;;7.30;5.03;;;;;;;15.72;62.78;99504.09;3130354;28;20109;-50
2022/01/16 05:11:27;;;;;;;7.85;4.88;;;;;;;15.78;62.79;99513.28;3131209;28;20079;-48
2022/01/16 05:13:26;;;;;;;10.07;6.10;;;;;;;15.81;62.81;99519.16;3133374;28;20106;-50
2022/01/16 05:16:41;;;;;;;6.20;4.75;;;;;;;15.95;62.58;99517.66;3131053;28;20045;-51
2022/01/16 05:18:13;;;;;;;13.60;5.85;;;;;;;16.00;62.97;99511.81;3126853;28;20117;-49
2022/01/16 05:19:45;;;;;;;8.68;5.32;;;;;;;16.06;62.90;99520.03;3131517;28;20118;-52
2022/01/16 05:21:18;;;;;;;8.68;5.22;;;;;;;16.10;62.74;99517.84;3125534;28;20500;-51
2022/01/16 05:22:50;;;;;;;9.73;6.07;;;;;;;16.14;62.69;99527.22;3129850;28;20560;-51
2022/01/16 05:24:24;;;;;;;8.15;4.70;;;;;;;16.19;62.70;99530.25;3129317;28;20051;-50
2022/01/16 05:25:56;;;;;;;8.65;5.78;;;;;;;16.25;62.62;99534.94;3131893;28;20122;-49
2022/01/16 05:27:28;;;;;;;11.07;5.57;;;;;;;16.29;62.56;99525.56;3131563;28;20428;-50
2022/01/16 05:29:02;;;;;;;9.25;5.35;;;;;;;16.33;62.67;99525.25;3131356;28;20136;-51
2022/01/16 05:30:34;;;;;;;9.15;5.65;;;;;;;16.36;62.62;99520.38;3124845;28;20049;-50
2022/01/16 05:32:07;;;;;;;12.75;5.47;;;;;;;16.38;62.58;99517.53;3129001;28;20057;-47
2022/01/16 05:33:39;;;;;;;9.20;5.70;;;;;;;16.42;62.19;99519.72;3130308;28;20472;-49
2022/01/16 05:35:11;;;;;;;6.05;5.13;;;;;;;16.46;62.37;99522.88;3128757;28;20041;-51
2022/01/16 05:36:43;;;;;;;7.13;5.28;;;;;;;16.48;62.26;99520.88;3130600;28;20052;-47
2022/01/16 05:38:14;;;;;;;9.80;6.68;;;;;;;16.50;62.28;99522.38;3128940;28;20040;-49
2022/01/16 05:39:48;;;;;;;7.05;4.93;;;;;;;16.53;62.38;99531.94;3128955;28;20049;-53
2022/01/16 05:41:21;;;;;;;6.10;4.40;;;;;;;16.56;62.47;99536.13;3130505;28;20095;-50
2022/01/16 05:42:53;;;;;;;6.97;5.20;;;;;;;16.57;62.41;99535.94;3133195;28;20449;-49
2022/01/16 05:44:26;;;;;;;8.23;5.50;;;;;;;16.59;62.42;99533.09;3131052;28;20749;-51
2022/01/16 05:45:58;;;;;;;9.30;4.50;;;;;;;16.62;62.46;99535.44;3130367;28;20053;-48
2022/01/16 05:47:30;;;;;;;7.28;5.22;;;;;;;16.62;62.56;99533.59;3131683;28;20191;-48
2022/01/16 05:49:01;;;;;;;6.30;4.63;;;;;;;16.64;62.45;99539.63;3123033;28;20045;-47
2022/01/16 05:50:33;;;;;;;8.98;5.68;;;;;;;16.66;62.38;99537.63;3132108;28;20513;-48
2022/01/16 05:52:06;;;;;;;9.32;5.97;;;;;;;16.68;62.57;99548.97;3130673;28;20040;-48
2022/01/16 05:53:38;;;;;;;7.00;5.00;;;;;;;16.69;62.52;99542.63;3130890;28;20048;-49
2022/01/16 05:55:11;;;;;;;8.50;4.95;;;;;;;16.71;62.53;99547.81;3129277;28;20110;-48
2022/01/16 05:56:43;;;;;;;7.40;4.95;;;;;;;16.73;62.49;99545.81;3132195;28;20517;-49
2022/01/16 05:58:15;;;;;;;5.75;4.50;;;;;;;16.73;62.27;99548.47;3131800;28;20041;-50
2022/01/16 05:59:49;;;;;;;8.43;5.28;;;;;;;16.75;62.39;99554.50;3131246;28;20051;-49
2022/01/16 06:01:20;;;;;;;7.72;5.45;;;;;;;16.75;62.39;99539.28;3131600;28;20064;-51
2022/01/16 06:02:52;;;;;;;7.15;4.25;;;;;;;16.80;62.16;99540.63;3133500;28;20138;-50
2022/01/16 06:04:24;;;;;;;7.05;5.78;;;;;;;16.81;61.68;99539.63;3132888;28;20049;-49
2022/01/16 06:05:56;;;;;;;7.55;5.18;;;;;;;16.84;61.12;99544.66;3129727;28;20089;-49
2022/01/16 06:07:28;;;;;;;7.38;4.50;;;;;;;16.86;60.92;99548.00;3130966;28;20060;-51
2022/01/16 06:09:00;;;;;;;6.07;4.32;;;;;;;16.90;60.78;99549.31;3133670;28;20040;-49
2022/01/16 06:10:32;;;;;;;6.93;4.97;;;;;;;16.95;61.01;99546.97;3131667;28;20045;-47
2022/01/16 06:12:05;;;;;;;9.90;4.70;;;;;;;17.04;61.30;99550.47;3127815;28;20487;-49
2022/01/16 06:13:37;;;;;;;10.10;5.65;;;;;;;17.05;60.76;99550.31;3128040;28;20138;-49
2022/01/16 06:15:11;;;;;;;10.23;6.00;;;;;;;17.04;60.53;99545.94;3131696;28;20713;-48
2022/01/16 06:16:43;;;;;;;10.45;5.53;;;;;;;17.04;60.25;99540.56;3130423;28;20494;-48
2022/01/16 06:18:15;;;;;;;7.35;5.43;;;;;;;17.04;60.14;99540.56;3134334;28;20060;-50
2022/01/16 06:19:46;;;;;;;7.25;5.13;;;;;;;17.05;60.14;99550.31;3132616;28;20041;-49
2022/01/16 06:21:17;;;;;;;7.25;5.00;;;;;;;17.05;60.05;99553.00;3128471;28;20056;-52
2022/01/16 06:22:49;;;;;;;11.48;5.38;;;;;;;17.05;59.93;99553.00;3128952;28;20041;-48
2022/01/16 06:24:21;;;;;;;7.05;4.57;;;;;;;17.06;59.90;99554.66;3132639;28;20055;-49
2022/01/16 06:25:55;;;;;;;10.52;5.32;;;;;;;17.07;59.83;99552.81;3132713;28;20072;-50
2022/01/16 06:27:27;;;;;;;7.30;4.80;;;;;;;17.08;59.71;99557.19;3130069;28;20056;-49
2022/01/16 06:28:59;;;;;;;7.13;5.47;;;;;;;17.08;59.72;99552.66;3127892;28;20439;-49
2022/01/16 06:30:33;;;;;;;7.28;4.97;;;;;;;17.08;59.67;99555.31;3132244;28;20049;-48
2022/01/16 06:32:06;;;;;;;8.32;5.43;;;;;;;17.15;59.64;99567.03;3131393;28;20178;-49
2022/01/16 06:33:38;;;;;;;9.15;5.05;;;;;;;17.18;59.57;99564.00;3130778;28;20053;-53
2022/01/16 06:35:11;;;;;;;11.80;5.38;;;;;;;17.32;59.80;99564.28;3128638;28;20094;-49
2022/01/16 06:36:43;;;;;;;8.68;5.43;;;;;;;17.26;59.81;99573.03;3130251;28;20680;-51
2022/01/16 06:38:15;;;;;;;8.07;5.22;;;;;;;17.25;59.55;99572.22;3133243;28;20406;-52
2022/01/16 06:39:47;;;;;;;11.93;4.90;;;;;;;17.29;59.56;99576.19;3128462;28;20033;-56
2022/01/16 06:41:19;;;;;;;28.38;6.13;;;;;;;17.33;59.56;99582.06;3130852;28;20048;-54
2022/01/16 06:42:51;;;;;;;10.32;5.20;;;;;;;17.35;59.34;99574.69;3132354;28;20056;-58
2022/01/16 06:44:23;;;;;;;21.90;6.28;;;;;;;17.37;59.91;99578.84;3130668;28;20072;-53
2022/01/16 06:45:56;;;;;;;19.17;5.50;;;;;;;17.39;60.08;99576.03;3131727;28;20094;-55
2022/01/16 06:47:28;;;;;;;16.00;6.05;;;;;;;17.37;60.37;99572.66;3133381;28;20569;-52
2022/01/16 06:49:00;;;;;;;18.10;6.95;;;;;;;17.34;60.70;99573.00;3133909;28;20666;-54
2022/01/16 06:50:32;;;;;;;18.33;5.35;;;;;;;17.34;60.86;99576.53;3132840;28;21152;-59
2022/01/16 06:52:05;;;;;;;10.07;5.13;;;;;;;17.35;60.72;99572.81;3132192;28;20048;-50
2022/01/16 06:53:37;;;;;;;16.80;6.07;;;;;;;17.36;60.53;99574.50;3123718;28;20045;-59
2022/01/16 06:55:09;;;;;;;10.32;4.22;;;;;;;17.38;60.42;99566.28;3128128;28;20056;-53
2022/01/16 06:56:41;;;;;;;8.63;5.15;;;;;;;17.37;60.11;99578.03;3129171;28;20048;-61
2022/01/16 06:58:13;;;;;;;19.40;5.35;;;;;;;17.36;60.35;99579.88;3130788;28;20056;-54
2022/01/16 06:59:45;;;;;;;16.83;6.15;;;;;;;17.32;60.33;99580.38;3128798;28;20075;-55
2022/01/16 07:01:19;;;;;;;6.97;4.68;;;;;;;17.27;60.60;99585.41;3129966;28;20131;-56
2022/01/16 07:02:50;;;;;;;10.88;4.88;;;;;;;17.26;60.22;99591.81;3130025;28;20126;-57
2022/01/16 07:04:22;;;;;;;8.57;5.18;;;;;;;17.25;59.98;99592.81;3129192;28;20053;-56
2022/01/16 07:05:54;;;;;;;7.20;4.18;;;;;;;17.24;59.91;99600.00;3131840;28;20739;-57
2022/01/16 07:07:26;;;;;;;10.38;6.00;;;;;;;17.23;59.75;99595.66;3132507;28;20748;-58
2022/01/16 07:08:58;;;;;;;6.82;3.58;;;;;;;17.20;59.68;99601.38;3126933;28;20048;-56
2022/01/16 07:10:30;;;;;;;15.88;5.28;;;;;;;17.17;59.77;99599.88;3130359;28;20453;-57
2022/01/16 07:12:02;;;;;;;19.05;5.55;;;;;;;17.16;59.77;99605.38;3133484;28;20049;-57
2022/01/16 07:13:33;;;;;;;9.98;5.30;;;;;;;17.14;59.60;99610.94;3134414;28;20449;-57
2022/01/16 07:15:06;;;;;;;8.20;5.50;;;;;;;17.12;59.73;99602.22;3134040;28;20048;-57
2022/01/16 07:16:40;;;;;;;17.27;4.82;;;;;;;17.10;59.69;99603.38;3132905;28;20426;-57
2022/01/16 07:18:11;;;;;;;11.52;5.43;;;;;;;17.10;59.70;99603.38;3133332;28;20052;-57
2022/01/16 07:19:43;;;;;;;10.68;4.85;;;;;;;17.09;59.77;99597.19;3133573;28;20068;-57
2022/01/16 07:21:16;;;;;;;8.00;4.75;;;;;;;17.10;59.65;99598.84;3134368;28;20057;-57
2022/01/16 07:22:48;;;;;;;8.90;5.25;;;;;;;17.10;59.52;99606.06;3134088;28;20048;-58
2022/01/16 07:24:20;;;;;;;12.07;4.57;;;;;;;17.11;59.60;99599.72;3134324;28;20059;-57
2022/01/16 07:25:53;;;;;;;10.48;5.30;;;;;;;17.12;59.55;99604.91;3129685;28;20493;-54
2022/01/16 07:27:25;;;;;;;6.90;4.82;;;;;;;17.12;59.55;99596.84;3126564;28;20080;-56
2022/01/16 07:28:56;;;;;;;12.55;5.13;;;;;;;17.13;59.55;99601.22;3134264;28;20783;-57
2022/01/16 07:30:29;;;;;;;10.38;4.45;;;;;;;17.15;59.39;99609.06;3133597;28;20603;-58
2022/01/16 07:32:02;;;;;;;17.95;5.82;;;;;;;17.16;59.33;99616.97;3132735;28;20814;-56
2022/01/16 07:33:34;;;;;;;9.85;4.28;;;;;;;17.15;59.27;99609.91;3133500;28;20048;-54
2022/01/16 07:35:07;;;;;;;7.25;5.13;;;;;;;17.15;59.30;99601.88;3131869;28;20107;-54
2022/01/16 07:36:39;;;;;;;6.47;4.50;;;;;;;17.16;59.19;99613.41;3134071;28;20101;-56
2022/01/16 07:38:11;;;;;;;7.57;4.13;;;;;;;17.17;59.19;99620.47;3134419;28;20060;-58
2022/01/16 07:39:43;;;;;;;10.32;5.70;;;;;;;17.17;59.11;99620.47;3133663;28;20048;-55
2022/01/16 07:41:14;;;;;;;7.30;4.85;;;;;;;17.16;59.16;99630.38;3134279;28;20130;-54
2022/01/16 07:42:47;;;;;;;6.80;4.60;;;;;;;17.15;59.04;99623.31;3131705;28;20922;-55
2022/01/16 07:44:19;;;;;;;8.68;4.93;;;;;;;17.14;59.01;99621.66;3125902;28;20045;-56
2022/01/16 07:45:51;;;;;;;6.72;4.28;;;;;;;17.14;59.10;99621.66;3132332;28;20044;-56
2022/01/16 07:47:24;;;;;;;6.85;4.78;;;;;;;17.15;59.14;99617.13;3130408;28;20052;-55